createdAt,value
2023-01-23T00:00:14.662Z,2.40
2023-01-23T01:03:37.509Z,2.28
2023-01-23T01:33:26.711Z,2.26
2023-01-23T02:41:49.682Z,2.38
2023-01-23T03:10:02.056Z,2.33
2023-01-23T03:25:47.199Z,2.28
2023-01-23T03:28:33.393Z,2.33
2023-01-23T03:53:26.685Z,2.44
2023-01-23T04:05:09.655Z,2.23
2023-01-23T04:29:29.957Z,2.34
2023-01-23T04:31:57.433Z,2.36
2023-01-23T06:13:12.031Z,2.26
2023-01-23T06:37:41.687Z,2.36
2023-01-23T06:40:13.363Z,2.29
2023-01-23T06:51:29.925Z,2.29
2023-01-23T06:58:16.848Z,2.26
2023-01-23T07:00:44.650Z,2.34
2023-01-23T07:03:18.045Z,2.36
2023-01-23T07:05:45.536Z,2.29
2023-01-23T07:08:13.035Z,2.19
2023-01-23T07:10:40.741Z,2.18
2023-01-23T07:13:09.780Z,2.26
2023-01-23T07:15:39.677Z,2.22
2023-01-23T07:18:09.793Z,2.10
2023-01-23T07:20:38.720Z,2.09
2023-01-23T07:23:06.204Z,2.15
2023-01-23T07:25:33.695Z,2.09
2023-01-23T07:28:01.281Z,2.05
2023-01-23T07:30:29.488Z,2.07
2023-01-23T07:32:58.279Z,2.14
2023-01-23T07:35:26.116Z,2.23
2023-01-23T07:37:53.497Z,2.23
2023-01-23T07:40:21.424Z,2.22
2023-01-23T07:42:52.995Z,2.15
2023-01-23T07:45:20.715Z,2.14
2023-01-23T07:47:48.078Z,2.16
2023-01-23T07:50:15.688Z,2.16
2023-01-23T07:52:43.409Z,2.09
2023-01-23T07:55:10.789Z,2.05
2023-01-23T07:57:38.253Z,2.04
2023-01-23T08:00:06.215Z,2.16
2023-01-23T08:02:33.695Z,2.24
2023-01-23T08:05:01.917Z,2.27
2023-01-23T08:07:29.502Z,2.23
2023-01-23T08:09:57.095Z,2.28
2023-01-23T08:12:24.821Z,2.27
2023-01-23T08:14:52.299Z,2.29
2023-01-23T08:17:19.914Z,2.26
2023-01-23T08:19:47.390Z,2.23
2023-01-23T08:22:14.997Z,2.28
2023-01-23T08:24:42.492Z,2.25
2023-01-23T08:27:09.953Z,2.28
2023-01-23T08:29:37.547Z,2.30
2023-01-23T08:32:05.301Z,2.33
2023-01-23T08:34:32.872Z,2.37
2023-01-23T08:37:00.263Z,2.39
2023-01-23T08:39:28.216Z,2.41
2023-01-23T08:41:55.710Z,2.44
2023-01-23T08:44:24.241Z,2.44
2023-01-23T08:46:52.082Z,2.43
2023-01-23T08:49:20.320Z,2.38
2023-01-23T08:51:47.890Z,2.40
2023-01-23T08:54:15.726Z,2.40
2023-01-23T08:56:43.328Z,2.40
2023-01-23T08:59:10.706Z,2.37
2023-01-23T09:05:19.236Z,2.42
2023-01-23T09:07:47.784Z,2.40
2023-01-23T09:10:15.492Z,2.43
2023-01-23T09:12:43.342Z,2.50
2023-01-23T09:15:11.439Z,2.43
2023-01-23T09:17:39.036Z,2.43
2023-01-23T09:20:07.344Z,2.43
2023-01-23T09:22:34.703Z,2.47
2023-01-23T09:25:02.064Z,2.53
2023-01-23T09:27:29.667Z,2.58
2023-01-23T09:29:57.163Z,2.64
2023-01-23T09:32:24.644Z,2.68
2023-01-23T09:34:52.114Z,2.68
2023-01-23T09:37:19.599Z,2.68
2023-01-23T09:39:47.332Z,2.69
2023-01-23T09:42:21.399Z,2.68
2023-01-23T09:44:51.398Z,2.71
2023-01-23T09:47:39.166Z,2.71
2023-01-23T09:50:08.813Z,2.74
2023-01-23T09:52:40.725Z,2.75
2023-01-23T09:55:25.274Z,2.64
2023-01-23T09:57:55.857Z,2.60
2023-01-23T10:00:27.685Z,2.65
2023-01-23T10:02:56.854Z,2.68
2023-01-23T10:05:33.290Z,2.73
2023-01-23T10:08:27.891Z,2.83
2023-01-23T10:11:09.068Z,2.82
2023-01-23T10:13:49.175Z,2.78
2023-01-23T10:16:50.356Z,2.83
2023-01-23T10:19:24.666Z,2.84
2023-01-23T10:21:59.360Z,2.87
2023-01-23T10:24:49.387Z,2.94
2023-01-23T10:27:18.798Z,2.91
2023-01-23T10:30:02.618Z,2.89
2023-01-23T10:32:32.113Z,2.91
2023-01-23T10:35:12.733Z,2.91
2023-01-23T10:37:54.198Z,2.91
2023-01-23T10:40:42.215Z,2.99
2023-01-23T10:43:14.964Z,3.08
2023-01-23T10:45:43.472Z,3.10
2023-01-23T10:48:38.122Z,3.11
2023-01-23T10:51:31.376Z,3.10
2023-01-23T10:54:30.876Z,3.10
2023-01-23T10:57:18.565Z,3.10
2023-01-23T11:00:20.857Z,3.01
2023-01-23T11:02:48.520Z,3.00
2023-01-23T11:05:52.960Z,3.03
2023-01-23T11:08:38.267Z,3.01
2023-01-23T11:11:14.858Z,2.98
2023-01-23T11:13:44.273Z,3.00
2023-01-23T11:16:21.251Z,3.08
2023-01-23T11:19:05.507Z,3.12
2023-01-23T11:21:57.351Z,3.07
2023-01-23T11:24:38.386Z,3.06
2023-01-23T11:27:17.758Z,3.07
2023-01-23T11:29:58.916Z,3.02
2023-01-23T11:32:26.359Z,2.99
2023-01-23T11:35:01.075Z,2.98
2023-01-23T11:37:32.516Z,3.04
2023-01-23T11:40:20.038Z,3.11
2023-01-23T11:42:48.720Z,3.17
2023-01-23T11:45:43.808Z,3.16
2023-01-23T11:48:20.197Z,3.21
2023-01-23T11:50:56.190Z,3.16
2023-01-23T11:53:42.275Z,3.04
2023-01-23T11:56:45.993Z,3.04
2023-01-23T11:59:22.785Z,3.04
2023-01-23T12:02:03.094Z,2.97
2023-01-23T12:04:44.649Z,2.96
2023-01-23T12:07:18.749Z,2.92
2023-01-23T12:09:48.977Z,2.98
2023-01-23T12:12:19.937Z,3.07
2023-01-23T12:14:59.913Z,3.04
2023-01-23T12:17:33.877Z,2.97
2023-01-23T12:20:38.428Z,3.02
2023-01-23T12:23:16.945Z,3.13
2023-01-23T12:26:08.193Z,3.19
2023-01-23T12:28:57.144Z,3.26
2023-01-23T12:32:04.031Z,3.28
2023-01-23T12:34:59.317Z,3.31
2023-01-23T12:38:04.237Z,3.20
2023-01-23T12:40:51.036Z,3.17
2023-01-23T12:43:19.606Z,3.15
2023-01-23T12:45:56.321Z,3.24
2023-01-23T12:48:28.666Z,3.28
2023-01-23T12:51:06.813Z,3.29
2023-01-23T12:53:42.297Z,3.30
2023-01-23T12:56:23.327Z,3.34
2023-01-23T12:58:53.691Z,3.32
2023-01-23T13:01:26.135Z,3.33
2023-01-23T13:03:53.575Z,3.26
2023-01-23T13:06:39.658Z,3.25
2023-01-23T13:09:33.434Z,3.29
2023-01-23T13:12:22.049Z,3.28
2023-01-23T13:15:14.492Z,3.28
2023-01-23T13:17:47.126Z,3.38
2023-01-23T13:20:40.661Z,3.35
2023-01-23T13:23:27.069Z,3.36
2023-01-23T13:26:26.486Z,3.44
2023-01-23T13:28:55.752Z,3.41
2023-01-23T13:31:50.557Z,3.39
2023-01-23T13:34:18.704Z,3.39
2023-01-23T13:36:47.600Z,3.39
2023-01-23T13:39:18.074Z,3.36
2023-01-23T13:41:50.236Z,3.40
2023-01-23T13:44:40.886Z,3.36
2023-01-23T14:21:41.781Z,3.57
2023-01-23T14:24:25.100Z,3.63
2023-01-23T14:27:04.439Z,3.52
2023-01-23T14:29:32.401Z,3.52
2023-01-23T14:31:59.893Z,3.44
2023-01-23T14:34:27.730Z,3.40
2023-01-23T14:37:04.219Z,3.42
2023-01-23T14:39:33.953Z,3.31
2023-01-23T14:50:50.292Z,3.38
2023-01-23T14:57:32.550Z,3.26
2023-01-23T15:00:00.017Z,3.25
2023-01-23T20:33:14.149Z,2.28
2023-01-23T21:24:21.091Z,2.16
2023-01-23T21:52:41.182Z,2.16
2023-01-23T22:17:12.210Z,1.86
2023-01-23T22:23:51.348Z,1.95
2023-01-23T22:49:21.140Z,1.93
2023-01-23T22:56:13.127Z,2.05
2023-01-23T22:59:31.200Z,2.06
2023-01-23T23:11:52.715Z,1.99
